^^
Station Historical Data
 
Daily Summary for September 28, 2020 Units:  English    Metric   Both
Daily Weekly Monthly Yearly Custom
  Current: High: Low: Average:
Temperature: 56.9 °F 57.1 °F 35.4 °F 45.9 °F
Dew Point: 25.5 °F 30.9 °F 23.4 °F 27.6 °F
Humidity: 29.6% 75% 28.8% 51%
Wind Speed: 6.5mph 25.3mph 3.3mph 9.1mph
Wind Gust: 8mph 30mph - -
WindSE - - South
Pressure: 30.33 in 30.43 in 30.33 in -
Precipitation: 0.00 in      
Historical Graphs
 
 
Tabular Data for September 28, 2020
Time Temperature Dew Point Pressure Wind Wind Speed Wind Gust Humidity Rainfall Rate (Hourly) solar
00:04 45.1 °F 30.7 °F 30.39 in ESE 19.7 mph 25 mph 56.7% 0.00 in 0 W/m2
00:09 45.1 °F 29.9 °F 30.39 in ESE 16.1 mph 24 mph 55.1% 0.00 in 0 W/m2
00:14 45 °F 29.8 °F 30.39 in SE 23.3 mph 28 mph 55% 0.00 in 0 W/m2
00:19 44.7 °F 29.2 °F 30.39 in ESE 25.3 mph 14.5 mph 54.4% 0.00 in 0 W/m2
00:24 44.4 °F 29.1 °F 30.39 in ESE 21.6 mph 30 mph 54.8% 0.00 in 0 W/m2
00:29 44.2 °F 29.1 °F 30.39 in ESE 21.6 mph 24 mph 55.1% 0.00 in 0 W/m2
00:34 44 °F 29.2 °F 30.39 in ESE 15.8 mph 24 mph 55.8% 0.00 in 0 W/m2
00:39 43.8 °F 29.2 °F 30.39 in ESE 11.6 mph 16 mph 56.2% 0.00 in 0 W/m2
00:44 43.7 °F 29 °F 30.39 in ESE 11.4 mph 15 mph 56% 0.00 in 0 W/m2
00:49 43.7 °F 29.2 °F 30.39 in ESE 10.6 mph 10 mph 56.4% 0.00 in 0 W/m2
00:54 43.7 °F 28.9 °F 30.39 in ESE 12.1 mph 12 mph 55.8% 0.00 in 0 W/m2
00:59 43.7 °F 29 °F 30.39 in SE 11.8 mph 14 mph 56% 0.00 in 0 W/m2
01:04 43.5 °F 28.8 °F 30.39 in SE 11.8 mph 13 mph 56% 0.00 in 0 W/m2
01:09 43.4 °F 29.1 °F 30.39 in SSE 10.1 mph 13 mph 56.8% 0.00 in 0 W/m2
01:14 43.2 °F 29.2 °F 30.39 in SSE 9.9 mph 11 mph 57.5% 0.00 in 0 W/m2
01:19 43.2 °F 28.9 °F 30.39 in SSE 9 mph 10 mph 57% 0.00 in 0 W/m2
01:24 43 °F 29.2 °F 30.39 in SW 5.6 mph 4.5 mph 57.9% 0.00 in 0 W/m2
01:29 42.9 °F 29.6 °F 30.40 in WSW 3.3 mph 7 mph 59.1% 0.00 in 0 W/m2
01:34 42.7 °F 29.3 °F 30.40 in SW 3.8 mph 4 mph 58.8% 0.00 in 0 W/m2
01:39 42.6 °F 29.5 °F 30.40 in WSW 4.4 mph 5 mph 59.6% 0.00 in 0 W/m2
01:44 42.4 °F 29.3 °F 30.40 in SW 5.9 mph 5 mph 59.4% 0.00 in 0 W/m2
01:49 42.4 °F 29.2 °F 30.40 in WSW 4.5 mph 7 mph 59.2% 0.00 in 0 W/m2
01:54 42.4 °F 29.3 °F 30.40 in West 5 mph 5.4 mph 59.5% 0.00 in 0 W/m2
01:59 42.6 °F 30 °F 30.40 in WNW 9.1 mph 9 mph 60.8% 0.00 in 0 W/m2
02:04 42.6 °F 30.1 °F 30.40 in WNW 6.5 mph 10 mph 61% 0.00 in 0 W/m2
02:09 42.6 °F 30.7 °F 30.40 in WNW 6.5 mph 7 mph 62.6% 0.00 in 0 W/m2
02:14 42.4 °F 30.6 °F 30.40 in WNW 8.4 mph 8 mph 62.7% 0.00 in 0 W/m2
02:19 42.3 °F 30.7 °F 30.40 in WNW 8.6 mph 9 mph 63.5% 0.00 in 0 W/m2
02:24 42 °F 30.9 °F 30.40 in NW 6.6 mph 9 mph 64.5% 0.00 in 0 W/m2
02:29 41.9 °F 30.6 °F 30.40 in NW 8.5 mph 8 mph 64% 0.00 in 0 W/m2
02:34 41.9 °F 30.4 °F 30.40 in NW 7.5 mph 9 mph 63.6% 0.00 in 0 W/m2
02:39 41.9 °F 30.7 °F 30.40 in NW 5.7 mph 8 mph 64.1% 0.00 in 0 W/m2
02:44 41.8 °F 30 °F 30.40 in WNW 7.3 mph 7 mph 62.8% 0.00 in 0 W/m2
02:49 41.9 °F 29.7 °F 30.40 in West 7.8 mph 8 mph 61.7% 0.00 in 0 W/m2
02:54 42.3 °F 29.7 °F 30.40 in West 7.9 mph 9 mph 60.8% 0.00 in 0 W/m2
02:59 42.4 °F 29.3 °F 30.40 in SW 7.6 mph 9 mph 59.6% 0.00 in 0 W/m2
03:04 42.6 °F 29.5 °F 30.40 in WSW 9.7 mph 12 mph 59.5% 0.00 in 0 W/m2
03:09 42.7 °F 29.3 °F 30.40 in West 8.8 mph 12 mph 58.9% 0.00 in 0 W/m2
03:14 43 °F 29.2 °F 30.40 in NW 9.9 mph 11 mph 58% 0.00 in 0 W/m2
03:19 43.2 °F 30 °F 30.40 in West 3.7 mph 13 mph 59.6% 0.00 in 0 W/m2
03:24 42.8 °F 30.3 °F 30.40 in SW 8.2 mph 5.1 mph 60.9% 0.00 in 0 W/m2
03:29 42.6 °F 29.7 °F 30.40 in WSW 9.9 mph 9 mph 60% 0.00 in 0 W/m2
03:34 42.8 °F 29.7 °F 30.40 in SW 10.2 mph 10 mph 59.5% 0.00 in 0 W/m2
03:39 42.8 °F 29.6 °F 30.40 in SSW 11.4 mph 8.3 mph 59.2% 0.00 in 0 W/m2
03:44 42.8 °F 29.6 °F 30.40 in SW 8.5 mph 12 mph 59.2% 0.00 in 0 W/m2
03:49 43 °F 29.7 °F 30.40 in WSW 8.6 mph 5.6 mph 59.1% 0.00 in 0 W/m2
03:54 43 °F 29.9 °F 30.40 in SW 7.7 mph 8 mph 59.8% 0.00 in 0 W/m2
03:59 42.8 °F 29.5 °F 30.40 in WSW 7.1 mph 8 mph 59% 0.00 in 0 W/m2
04:04 42.8 °F 29.6 °F 30.40 in WSW 7.8 mph 8 mph 59.1% 0.00 in 0 W/m2
04:09 42.7 °F 29.8 °F 30.40 in WSW 7 mph 9 mph 60% 0.00 in 0 W/m2
04:14 42.4 °F 29.5 °F 30.40 in WSW 5.9 mph 4 mph 59.8% 0.00 in 0 W/m2
04:19 42.3 °F 29.2 °F 30.40 in West 8.8 mph 8 mph 59.6% 0.00 in 0 W/m2
04:24 42.2 °F 29.2 °F 30.40 in West 6.8 mph 10 mph 59.8% 0.00 in 0 W/m2
04:29 41.9 °F 28.9 °F 30.40 in West 6 mph 7 mph 59.9% 0.00 in 0 W/m2
04:34 41.7 °F 28.5 °F 30.40 in West 6.5 mph 7 mph 59.2% 0.00 in 0 W/m2
04:39 41.5 °F 29.2 °F 30.40 in WSW 6.1 mph 7 mph 61.3% 0.00 in 0 W/m2
04:44 41 °F 29.5 °F 30.40 in West 7.3 mph 7 mph 63.3% 0.00 in 0 W/m2
04:49 40.6 °F 30 °F 30.40 in NW 7.4 mph 8 mph 65.7% 0.00 in 0 W/m2
04:54 40.1 °F 30 °F 30.41 in NW 6.9 mph 8 mph 67% 0.00 in 0 W/m2
04:59 39.6 °F 29.4 °F 30.41 in NW 6.7 mph 7 mph 66.7% 0.00 in 0 W/m2
05:04 39.2 °F 29.4 °F 30.41 in NW 7.4 mph 7 mph 67.6% 0.00 in 0 W/m2
05:09 39.3 °F 29.3 °F 30.41 in NW 6.9 mph 8 mph 67% 0.00 in 0 W/m2
05:14 39.3 °F 29.5 °F 30.41 in NW 6.9 mph 7 mph 67.8% 0.00 in 0 W/m2
05:19 38.9 °F 29.3 °F 30.41 in NW 6.6 mph 7 mph 68% 0.00 in 0 W/m2
05:24 38.7 °F 29.3 °F 30.41 in WNW 5.9 mph 7 mph 68.5% 0.00 in 0 W/m2
05:29 38.8 °F 29.4 °F 30.41 in NNW 5.8 mph 6 mph 68.9% 0.00 in 0 W/m2
05:34 38 °F 29.6 °F 30.41 in NNW 5.8 mph 6 mph 71.5% 0.00 in 0 W/m2
05:39 37.6 °F 29.3 °F 30.41 in NW 6 mph 6 mph 71.7% 0.00 in 0 W/m2
05:44 37.7 °F 28.8 °F 30.41 in NW 5.7 mph 7 mph 70.1% 0.00 in 0 W/m2
05:49 37.8 °F 29.2 °F 30.41 in NW 5.8 mph 6 mph 70.9% 0.00 in 0 W/m2
05:54 37.7 °F 29.2 °F 30.42 in NW 5.8 mph 6 mph 71.3% 0.00 in 0 W/m2
05:59 37.3 °F 29.3 °F 30.42 in NNW 5.5 mph 6 mph 72.5% 0.00 in 0 W/m2
06:04 37 °F 29 °F 30.42 in NNW 4.9 mph 6 mph 72.6% 0.00 in 0 W/m2
06:09 37 °F 28.9 °F 30.42 in NW 6.4 mph 6 mph 72.3% 0.00 in 0 W/m2
06:14 37 °F 29.1 °F 30.42 in NNW 5 mph 5.4 mph 72.7% 0.00 in 0 W/m2
06:19 36.9 °F 29 °F 30.42 in North 4.6 mph 6 mph 73.1% 0.00 in 0 W/m2
06:24 36.5 °F 29 °F 30.42 in NNW 5.2 mph 5 mph 73.9% 0.00 in 0 W/m2
06:29 36.2 °F 28.8 °F 30.42 in NNW 4.7 mph 6 mph 74.3% 0.00 in 0 W/m2
06:34 36 °F 28.8 °F 30.42 in NW 5.2 mph 5.4 mph 75% 0.00 in 0 W/m2
06:39 35.7 °F 28.5 °F 30.42 in NW 5.8 mph 6 mph 75% 0.00 in 0 W/m2
06:44 35.4 °F 28.3 °F 30.42 in NW 5.8 mph 6 mph 75% 0.00 in 1 W/m2
06:49 35.4 °F 28.1 °F 30.42 in NW 5.8 mph 6 mph 74.5% 0.00 in 2 W/m2
06:54 35.5 °F 27.7 °F 30.42 in NW 5.8 mph 6 mph 73.1% 0.00 in 5 W/m2
06:59 35.4 °F 27.6 °F 30.42 in NW 5.3 mph 6 mph 73% 0.00 in 8 W/m2
07:04 35.5 °F 27.6 °F 30.42 in NW 5.8 mph 6 mph 72.6% 0.00 in 13 W/m2
07:09 35.9 °F 27.4 °F 30.43 in NNW 5.8 mph 6 mph 71% 0.00 in 18 W/m2
07:14 36.4 °F 27.7 °F 30.43 in North 4 mph 6 mph 70.4% 0.00 in 24 W/m2
07:19 36.7 °F 27.7 °F 30.42 in North 5.1 mph 6 mph 69.7% 0.00 in 32 W/m2
07:24 37.1 °F 28 °F 30.42 in NNW 5.3 mph 6 mph 69.3% 0.00 in 41 W/m2
07:29 37.3 °F 28.1 °F 30.43 in NW 6.9 mph 7 mph 69.2% 0.00 in 50 W/m2
07:34 38 °F 28.1 °F 30.43 in NW 6.5 mph 5.8 mph 67.1% 0.00 in 62 W/m2
07:39 38.4 °F 28.7 °F 30.43 in NW 6.6 mph 7 mph 67.9% 0.00 in 68 W/m2
07:44 39 °F 28.6 °F 30.43 in SE 5.1 mph 7 mph 66.2% 0.00 in 88 W/m2
07:49 40.3 °F 29.1 °F 30.43 in ESE 4.3 mph 6 mph 64.1% 0.00 in 102 W/m2
07:54 41.1 °F 29.7 °F 30.43 in NW 4.6 mph 5 mph 63.6% 0.00 in 116 W/m2
07:59 41.5 °F 30 °F 30.43 in West 7 mph 6 mph 63.5% 0.00 in 133 W/m2
08:04 42.5 °F 29.8 °F 30.43 in West 9.4 mph 8 mph 60.5% 0.00 in 148 W/m2
08:09 43.6 °F 30.3 °F 30.43 in West 10.2 mph 11 mph 59.1% 0.00 in 164 W/m2
08:14 44.6 °F 30.5 °F 30.43 in WSW 8.6 mph 11 mph 57.6% 0.00 in 182 W/m2
08:19 45.2 °F 30.4 °F 30.43 in West 9.1 mph 9 mph 55.9% 0.00 in 198 W/m2
08:24 45.7 °F 30 °F 30.43 in SSW 9.8 mph 11 mph 54% 0.00 in 213 W/m2
08:29 46.1 °F 29.5 °F 30.43 in SSW 9.3 mph 12 mph 52.1% 0.00 in 226 W/m2
08:34 46.6 °F 28.7 °F 30.43 in South 9.6 mph 10 mph 49.7% 0.00 in 234 W/m2
08:39 46.9 °F 28.2 °F 30.43 in South 12.8 mph 12 mph 47.7% 0.00 in 236 W/m2
08:44 47.2 °F 28.4 °F 30.43 in South 13.9 mph 15 mph 47.8% 0.00 in 236 W/m2
08:49 47.6 °F 28.9 °F 30.43 in South 11.9 mph 15 mph 48.2% 0.00 in 235 W/m2
08:54 47.8 °F 27.7 °F 30.43 in South 10.1 mph 14 mph 45.5% 0.00 in 246 W/m2
08:59 48 °F 28.2 °F 30.43 in South 10.1 mph 10 mph 45.9% 0.00 in 270 W/m2
09:04 48.6 °F 28.8 °F 30.43 in SSE 10.1 mph 11 mph 46.2% 0.00 in 305 W/m2
09:09 48.6 °F 29 °F 30.43 in SSE 12.1 mph 14 mph 46.5% 0.00 in 343 W/m2
09:14 48.9 °F 28.6 °F 30.43 in SSE 14.2 mph 14 mph 45.3% 0.00 in 378 W/m2
09:19 49.1 °F 28 °F 30.43 in SSE 13.1 mph 10.3 mph 43.9% 0.00 in 407 W/m2
09:24 49 °F 27.3 °F 30.43 in SSE 13.9 mph 14 mph 42.7% 0.00 in 432 W/m2
09:29 49.1 °F 26.3 °F 30.43 in SSE 11.6 mph 15 mph 40.8% 0.00 in 454 W/m2
09:34 49.7 °F 26.3 °F 30.43 in SSE 10.1 mph 14 mph 40% 0.00 in 473 W/m2
09:39 50.5 °F 26.7 °F 30.43 in SE 7.8 mph 12 mph 39.4% 0.00 in 490 W/m2
09:44 50.6 °F 26.8 °F 30.43 in ESE 9.4 mph 11 mph 39.4% 0.00 in 508 W/m2
09:49 50.6 °F 26.6 °F 30.43 in ENE 6.7 mph 11 mph 39.3% 0.00 in 524 W/m2
09:54 50.7 °F 26 °F 30.43 in ESE 8.3 mph 6.7 mph 38% 0.00 in 544 W/m2
09:59 50.5 °F 25 °F 30.43 in ESE 10.6 mph 13 mph 36.9% 0.00 in 563 W/m2
10:04 50.1 °F 24.8 °F 30.42 in SE 13.4 mph 13 mph 37% 0.00 in 582 W/m2
10:09 50.2 °F 25.1 °F 30.42 in SE 5.4 mph 18 mph 37.4% 0.00 in 593 W/m2
10:14 50.2 °F 25.4 °F 30.42 in ENE 7.4 mph 5.4 mph 37.8% 0.00 in 612 W/m2
10:19 50.4 °F 25.2 °F 30.42 in East 14.9 mph 12 mph 37.3% 0.00 in 628 W/m2
10:24 50.2 °F 24.8 °F 30.42 in East 11.6 mph 18 mph 37% 0.00 in 645 W/m2
10:29 50 °F 24.8 °F 30.42 in East 9.7 mph 13 mph 37.2% 0.00 in 663 W/m2
10:34 50.2 °F 25.3 °F 30.42 in ENE 11.9 mph 10 mph 37.6% 0.00 in 677 W/m2
10:39 50.8 °F 24.7 °F 30.42 in ENE 9.6 mph 16 mph 36% 0.00 in 689 W/m2
10:44 50.9 °F 24.9 °F 30.42 in East 9.9 mph 12 mph 36.2% 0.00 in 702 W/m2
10:49 50.9 °F 24.9 °F 30.42 in ENE 10 mph 13 mph 36% 0.00 in 718 W/m2
10:54 50.7 °F 23.8 °F 30.42 in ENE 11.3 mph 12 mph 34.7% 0.00 in 733 W/m2
10:59 50.8 °F 23.4 °F 30.42 in NE 8.8 mph 13 mph 34% 0.00 in 743 W/m2
11:04 50.9 °F 24.4 °F 30.42 in South 6.7 mph 12 mph 35.4% 0.00 in 757 W/m2
11:09 51 °F 24.3 °F 30.41 in East 13.7 mph 16 mph 35% 0.00 in 773 W/m2
11:14 51.1 °F 24.4 °F 30.41 in ESE 9.1 mph 16 mph 35.2% 0.00 in 780 W/m2
11:19 51.3 °F 24.3 °F 30.41 in ESE 9.8 mph 12 mph 34.6% 0.00 in 791 W/m2
11:24 51.5 °F 24.5 °F 30.41 in East 9.3 mph 6 mph 34.6% 0.00 in 800 W/m2
11:29 51.5 °F 24.2 °F 30.41 in ENE 11 mph 10 mph 34.2% 0.00 in 812 W/m2
11:34 51.5 °F 24.3 °F 30.41 in NE 11 mph 12 mph 34.4% 0.00 in 819 W/m2
11:39 51.9 °F 24.3 °F 30.41 in NNE 9.7 mph 5.4 mph 33.9% 0.00 in 829 W/m2
11:44 52.3 °F 25.3 °F 30.41 in NE 8.8 mph 14 mph 34.8% 0.00 in 836 W/m2
11:49 52.6 °F 25.2 °F 30.41 in NE 10.5 mph 11 mph 34.3% 0.00 in 843 W/m2
11:54 52.3 °F 25.4 °F 30.41 in NE 11.6 mph 12 mph 34.8% 0.00 in 853 W/m2
11:59 52.1 °F 25.1 °F 30.41 in NE 20.4 mph 13 mph 34.7% 0.00 in 860 W/m2
12:04 52 °F 24.4 °F 30.41 in NNE 9 mph 30 mph 34% 0.00 in 865 W/m2
12:09 52.2 °F 24.7 °F 30.40 in NNE 10.4 mph 10 mph 34.2% 0.00 in 872 W/m2
12:14 52.5 °F 25.4 °F 30.40 in East 7.6 mph 13 mph 34.8% 0.00 in 874 W/m2
12:19 52.8 °F 25.3 °F 30.39 in East 12.8 mph 13 mph 34.2% 0.00 in 879 W/m2
12:24 52.8 °F 25.3 °F 30.39 in NE 15.5 mph 15 mph 34.2% 0.00 in 886 W/m2
12:29 53 °F 25.6 °F 30.39 in East 7.8 mph 5.1 mph 34.4% 0.00 in 889 W/m2
12:34 53.2 °F 25.5 °F 30.39 in ENE 13.6 mph 8 mph 33.8% 0.00 in 891 W/m2
12:39 53.5 °F 25.7 °F 30.39 in ENE 9.9 mph 15 mph 33.8% 0.00 in 894 W/m2
12:44 53.2 °F 25 °F 30.38 in East 11 mph 7.6 mph 33.2% 0.00 in 896 W/m2
12:49 53.1 °F 25.2 °F 30.38 in ENE 11.6 mph 12 mph 33.7% 0.00 in 895 W/m2
12:54 53.4 °F 25.1 °F 30.38 in NE 11.6 mph 14 mph 33% 0.00 in 896 W/m2
12:59 53.5 °F 24.7 °F 30.38 in ENE 13.1 mph 14 mph 32.4% 0.00 in 896 W/m2
13:04 53.3 °F 25.3 °F 30.38 in East 7.1 mph 16 mph 33.5% 0.00 in 895 W/m2
13:09 53.6 °F 25.2 °F 30.38 in East 9.5 mph 10 mph 33.1% 0.00 in 894 W/m2
13:14 53.7 °F 24.8 °F 30.38 in ENE 13.5 mph 11 mph 32.4% 0.00 in 892 W/m2
13:19 53.8 °F 25.4 °F 30.38 in East 12.5 mph 16 mph 33.1% 0.00 in 891 W/m2
13:24 54.2 °F 25.3 °F 30.38 in NE 14.1 mph 15 mph 32.4% 0.00 in 888 W/m2
13:29 54 °F 24.8 °F 30.38 in NNE 8.1 mph 17 mph 32% 0.00 in 885 W/m2
13:34 53.9 °F 24.7 °F 30.37 in East 7.4 mph 9 mph 32% 0.00 in 883 W/m2
13:39 54.3 °F 25.1 °F 30.37 in ENE 13.1 mph 15 mph 32% 0.00 in 877 W/m2
13:44 54.7 °F 24.8 °F 30.37 in East 10.9 mph 14 mph 31.3% 0.00 in 870 W/m2
13:49 54.6 °F 24.2 °F 30.36 in ESE 8.4 mph 15 mph 30.6% 0.00 in 868 W/m2
13:54 54.4 °F 24.3 °F 30.36 in East 7.5 mph 10 mph 31% 0.00 in 863 W/m2
13:59 54.9 °F 25.1 °F 30.36 in ENE 9.4 mph 11 mph 31.4% 0.00 in 859 W/m2
14:04 55.3 °F 24.7 °F 30.36 in ENE 14.1 mph 13 mph 30.4% 0.00 in 849 W/m2
14:09 55.5 °F 24.1 °F 30.36 in East 11.7 mph 17 mph 29.4% 0.00 in 844 W/m2
14:14 55.5 °F 24.2 °F 30.35 in NNE 9.6 mph 14 mph 29.6% 0.00 in 836 W/m2
14:19 56 °F 25.5 °F 30.35 in South 6.9 mph 14 mph 30.6% 0.00 in 828 W/m2
14:24 55.9 °F 25.7 °F 30.35 in SSE 6.8 mph 8 mph 31% 0.00 in 817 W/m2
14:29 55.6 °F 25.1 °F 30.35 in SE 7.2 mph 8 mph 30.6% 0.00 in 814 W/m2
14:34 55.6 °F 24.6 °F 30.35 in NE 14.8 mph 8 mph 30% 0.00 in 800 W/m2
14:39 55.9 °F 24.1 °F 30.35 in WNW 10 mph 4.9 mph 29% 0.00 in 789 W/m2
14:44 56.1 °F 24.1 °F 30.34 in WSW 7.7 mph 4.2 mph 28.8% 0.00 in 778 W/m2
14:49 56.7 °F 24.9 °F 30.34 in SSW 9.1 mph 9 mph 29.1% 0.00 in 764 W/m2
14:54 57.1 °F 25.6 °F 30.34 in SE 7 mph 13 mph 29.6% 0.00 in 754 W/m2
14:59 57 °F 25.7 °F 30.33 in SSE 6 mph 8 mph 29.8% 0.00 in 738 W/m2
15:04 56.9 °F 25.5 °F 30.33 in SE 6.5 mph 8 mph 29.6% 0.00 in 726 W/m2
Rockcreek-Hillcrest Superior, Colorado, USA
Compliments of Weather Underground - 2 mb